createdAt,value
2022-12-12T00:00:34.834Z,98736.59
2022-12-12T00:03:01.946Z,98752.09
2022-12-12T00:05:29.041Z,98716.72
2022-12-12T00:07:56.013Z,98721.03
2022-12-12T00:10:23.054Z,98723.50
2022-12-12T00:12:50.019Z,98719.34
2022-12-12T00:15:17.018Z,98721.00
2022-12-12T00:17:43.978Z,98720.28
2022-12-12T00:20:11.085Z,98719.44
2022-12-12T00:22:38.135Z,98706.59
2022-12-12T00:25:05.414Z,98716.19
2022-12-12T00:27:33.952Z,98710.13
2022-12-12T00:30:00.931Z,98720.34
2022-12-12T00:32:27.978Z,98715.38
2022-12-12T00:34:54.914Z,98727.41
2022-12-12T00:37:21.918Z,98702.53
2022-12-12T00:39:48.920Z,98696.72
2022-12-12T00:42:15.864Z,98717.22
2022-12-12T00:44:42.838Z,98705.88
2022-12-12T00:47:09.966Z,98714.75
2022-12-12T00:49:37.139Z,98708.09
2022-12-12T00:52:04.461Z,98717.47
2022-12-12T00:54:31.669Z,98708.78
2022-12-12T00:56:59.369Z,98713.19
2022-12-12T00:59:26.432Z,98712.50
2022-12-12T01:01:53.470Z,98703.94
2022-12-12T01:04:20.474Z,98699.47
2022-12-12T01:06:47.427Z,98705.78
2022-12-12T01:09:14.434Z,98708.44
2022-12-12T01:11:41.408Z,98698.91
2022-12-12T01:14:08.441Z,98706.91
2022-12-12T01:16:35.534Z,98694.28
2022-12-12T01:19:02.561Z,98701.56
2022-12-12T01:21:29.847Z,98705.88
2022-12-12T01:23:56.850Z,98713.78
2022-12-12T01:26:25.146Z,98703.44
2022-12-12T01:28:52.911Z,98712.09
2022-12-12T01:31:20.561Z,98660.25
2022-12-12T01:33:47.500Z,98720.16
2022-12-12T01:36:16.751Z,98704.31
2022-12-12T01:38:48.605Z,98719.38
2022-12-12T01:41:16.592Z,98709.72
2022-12-12T01:43:44.085Z,98691.53
2022-12-12T01:46:38.450Z,98717.19
2022-12-12T01:49:11.135Z,98708.31
2022-12-12T01:51:40.189Z,98722.13
2022-12-12T01:54:23.459Z,98706.75
2022-12-12T01:56:52.835Z,98704.47
2022-12-12T01:59:23.091Z,98702.94
2022-12-12T02:01:50.580Z,98701.34
2022-12-12T02:04:18.518Z,98715.31
2022-12-12T02:06:47.702Z,98720.63
2022-12-12T02:09:16.702Z,98723.91
2022-12-12T02:11:54.511Z,98747.25
2022-12-12T02:14:27.914Z,98692.25
2022-12-12T02:17:02.717Z,98688.97
2022-12-12T02:19:51.287Z,98709.72
2022-12-12T02:22:42.398Z,98712.28
2022-12-12T02:25:34.446Z,98709.31
2022-12-12T02:28:29.340Z,98717.72
2022-12-12T02:31:08.506Z,98718.56
2022-12-12T02:33:41.581Z,98710.88
2022-12-12T02:36:28.052Z,98720.50
2022-12-12T02:39:13.348Z,98720.31
2022-12-12T02:41:51.363Z,98714.28
2022-12-12T02:44:40.020Z,98718.75
2022-12-12T02:47:19.425Z,98728.25
2022-12-12T02:49:53.171Z,98730.94
2022-12-12T02:52:20.986Z,98717.31
2022-12-12T02:54:49.029Z,98719.88
2022-12-12T02:57:26.932Z,98724.72
2022-12-12T03:00:15.903Z,98715.31
2022-12-12T03:03:57.657Z,98720.75
2022-12-12T03:06:56.986Z,98732.75
2022-12-12T03:09:48.907Z,98699.72
2022-12-12T03:12:25.062Z,98734.19
2022-12-12T03:14:57.439Z,98730.81
2022-12-12T03:17:36.664Z,98723.19
2022-12-12T03:20:11.144Z,98725.88
2022-12-12T03:22:53.317Z,98697.47
2022-12-12T03:25:28.722Z,98730.16
2022-12-12T03:28:21.283Z,98730.66
2022-12-12T03:30:55.376Z,98718.66
2022-12-12T03:33:28.210Z,98721.25
2022-12-12T03:36:08.544Z,98727.63
2022-12-12T03:38:43.008Z,98741.31
2022-12-12T03:41:19.114Z,98739.31
2022-12-12T03:43:59.522Z,98740.31
2022-12-12T03:46:38.461Z,98728.47
2022-12-12T03:49:17.855Z,98731.88
2022-12-12T03:51:51.289Z,98729.16
2022-12-12T03:54:24.012Z,98705.28
2022-12-12T03:57:19.439Z,98725.25
2022-12-12T03:59:53.448Z,98730.19
2022-12-12T04:02:33.565Z,98723.13
2022-12-12T04:05:38.948Z,98728.31
2022-12-12T04:08:16.457Z,98724.91
2022-12-12T04:11:10.213Z,98728.16
2022-12-12T04:13:59.353Z,98720.69
2022-12-12T04:16:32.245Z,98734.63
2022-12-12T04:19:08.557Z,98740.66
2022-12-12T04:22:01.408Z,98731.25
2022-12-12T04:25:10.115Z,98727.75
2022-12-12T04:27:42.326Z,98727.94
2022-12-12T04:30:12.401Z,98712.25
2022-12-12T04:32:49.138Z,98731.75
2022-12-12T04:35:27.492Z,98735.31
2022-12-12T04:38:02.703Z,98738.59
2022-12-12T04:40:32.680Z,98736.06
2022-12-12T04:43:05.339Z,98724.75
2022-12-12T04:45:40.849Z,98742.31
2022-12-12T04:48:10.646Z,98743.09
2022-12-12T04:50:39.459Z,98737.63
2022-12-12T04:53:17.956Z,98730.75
2022-12-12T04:55:52.741Z,98736.81
2022-12-12T04:58:19.769Z,98717.88
2022-12-12T05:00:58.661Z,98735.47
2022-12-12T05:03:46.832Z,98715.00
2022-12-12T05:06:21.970Z,98717.66
2022-12-12T05:08:52.023Z,98724.22
2022-12-12T05:11:22.179Z,98725.34
2022-12-12T05:13:49.995Z,98727.22
2022-12-12T05:16:43.948Z,98720.28
2022-12-12T05:19:10.921Z,98728.50
2022-12-12T05:21:37.918Z,98713.56
2022-12-12T05:24:05.262Z,98731.00
2022-12-12T05:26:34.235Z,98745.75
2022-12-12T05:29:06.905Z,98741.38
2022-12-12T05:31:34.864Z,98742.72
2022-12-12T05:34:01.952Z,98741.13
2022-12-12T05:36:28.908Z,98752.44
2022-12-12T05:38:55.864Z,98744.75
2022-12-12T05:41:22.914Z,98747.50
2022-12-12T05:43:49.886Z,98746.34
2022-12-12T05:46:17.172Z,98734.16
2022-12-12T05:48:44.717Z,98748.66
2022-12-12T05:51:11.655Z,98748.91
2022-12-12T05:53:42.780Z,98742.09
2022-12-12T05:56:11.665Z,98740.34
2022-12-12T05:58:40.514Z,98742.81
2022-12-12T06:01:07.932Z,98749.91
2022-12-12T06:03:35.804Z,98749.00
2022-12-12T06:06:02.926Z,98753.09
2022-12-12T06:08:30.122Z,98761.75
2022-12-12T06:10:57.134Z,98764.31
2022-12-12T06:13:24.152Z,98756.41
2022-12-12T06:15:51.179Z,98769.25
2022-12-12T06:18:18.160Z,98747.94
2022-12-12T06:20:45.111Z,98761.84
2022-12-12T06:23:12.140Z,98747.09
2022-12-12T06:25:39.386Z,98763.72
2022-12-12T06:28:06.382Z,98751.53
2022-12-12T06:30:34.123Z,98757.84
2022-12-12T06:33:01.041Z,98750.72
2022-12-12T06:35:28.095Z,98717.72
2022-12-12T06:37:55.039Z,98750.75
2022-12-12T06:40:22.822Z,98732.59
2022-12-12T06:42:49.747Z,98763.59
2022-12-12T06:45:17.513Z,98761.50
2022-12-12T06:47:44.782Z,98761.75
2022-12-12T06:50:12.119Z,98777.31
2022-12-12T06:52:39.047Z,98774.72
2022-12-12T06:55:06.593Z,98767.00
2022-12-12T06:57:33.674Z,98786.47
2022-12-12T07:00:00.836Z,98764.91
2022-12-12T07:02:30.217Z,98770.22
2022-12-12T07:04:58.236Z,98771.09
2022-12-12T07:07:25.262Z,98754.59
2022-12-12T07:09:52.401Z,98768.34
2022-12-12T07:12:19.415Z,98770.28
2022-12-12T07:14:46.442Z,98778.91
2022-12-12T07:17:13.423Z,98765.81
2022-12-12T07:19:40.465Z,98776.91
2022-12-12T07:22:10.182Z,98799.50
2022-12-12T07:24:38.176Z,98773.53
2022-12-12T07:27:07.262Z,98756.47
2022-12-12T07:29:34.538Z,98773.72
2022-12-12T07:32:01.512Z,98765.78
2022-12-12T07:34:32.618Z,98790.81
2022-12-12T07:37:03.056Z,98776.19
2022-12-12T07:39:32.650Z,98726.75
2022-12-12T07:42:00.143Z,98777.88
2022-12-12T07:44:27.258Z,98772.94
2022-12-12T07:46:54.272Z,98788.59
2022-12-12T07:49:21.358Z,98781.66
2022-12-12T07:51:49.446Z,98786.16
2022-12-12T07:54:16.834Z,98770.44
2022-12-12T07:56:43.762Z,98784.25
2022-12-12T07:59:10.717Z,98780.78
2022-12-12T08:01:37.864Z,98790.09
2022-12-12T08:04:05.422Z,98772.16
2022-12-12T08:06:32.421Z,98790.47
2022-12-12T08:08:59.342Z,98786.97
2022-12-12T08:11:26.342Z,98786.19
2022-12-12T08:13:53.909Z,98780.94
2022-12-12T08:16:29.249Z,98761.91
2022-12-12T08:18:58.398Z,98765.56
2022-12-12T08:21:27.224Z,98783.56
2022-12-12T08:23:58.427Z,98662.78
2022-12-12T08:26:27.192Z,98791.31
2022-12-12T08:28:55.890Z,98727.63
2022-12-12T08:31:23.975Z,98783.38
2022-12-12T08:33:51.523Z,98786.28
2022-12-12T08:36:21.333Z,98794.06
2022-12-12T08:38:49.309Z,98791.56
2022-12-12T08:41:16.685Z,98796.03
2022-12-12T08:43:44.651Z,98798.31
2022-12-12T08:46:17.409Z,98796.34
2022-12-12T08:48:45.708Z,98786.19
2022-12-12T08:51:12.895Z,98789.56
2022-12-12T08:53:39.933Z,98795.44
2022-12-12T08:56:07.371Z,98794.72
2022-12-12T08:58:34.324Z,98806.72
2022-12-12T09:01:01.359Z,98806.13
2022-12-12T09:03:29.852Z,98817.44
2022-12-12T09:05:57.094Z,98810.16
2022-12-12T09:08:24.670Z,98801.88
2022-12-12T09:10:51.854Z,98796.41
2022-12-12T09:13:20.146Z,98816.97
2022-12-12T09:15:51.418Z,98800.19
2022-12-12T09:18:20.146Z,98803.59
2022-12-12T09:20:51.805Z,98812.22
2022-12-12T09:23:19.490Z,98806.03
2022-12-12T09:25:46.779Z,98801.72
2022-12-12T09:28:16.406Z,98797.56
2022-12-12T09:30:44.553Z,98802.78
2022-12-12T09:33:12.346Z,98789.56
2022-12-12T09:35:39.403Z,98803.38
2022-12-12T09:38:12.455Z,98808.56
2022-12-12T09:41:02.807Z,98812.03
2022-12-12T09:43:43.528Z,98804.28
2022-12-12T09:46:58.503Z,98805.53
2022-12-12T09:49:31.547Z,98810.97
2022-12-12T09:52:00.171Z,98799.81
2022-12-12T09:54:28.291Z,98793.13
2022-12-12T09:57:04.130Z,98782.38
2022-12-12T10:00:10.189Z,98790.31
2022-12-12T10:02:54.759Z,98789.41
2022-12-12T10:05:27.647Z,98784.28
2022-12-12T10:08:00.818Z,98805.78
2022-12-12T10:10:30.127Z,98814.22
2022-12-12T10:12:59.742Z,98807.19
2022-12-12T10:15:32.552Z,98803.94
2022-12-12T10:18:03.032Z,98785.94
2022-12-12T10:20:33.630Z,98786.00
2022-12-12T10:23:35.155Z,98800.03
2022-12-12T10:26:07.335Z,98760.09
2022-12-12T10:28:35.616Z,98798.94
2022-12-12T10:31:24.533Z,98795.72
2022-12-12T10:34:19.051Z,98793.16
2022-12-12T10:37:04.897Z,98784.72
2022-12-12T10:39:51.375Z,98750.75
2022-12-12T10:42:30.329Z,98795.97
2022-12-12T10:45:15.610Z,98789.81
2022-12-12T10:47:42.914Z,98789.88
2022-12-12T10:50:21.782Z,98788.91
2022-12-12T10:52:49.121Z,98782.06
2022-12-12T10:55:23.292Z,98794.91
2022-12-12T10:58:02.218Z,98778.59
2022-12-12T11:00:35.189Z,98774.28
2022-12-12T11:03:29.056Z,98785.31
2022-12-12T11:05:57.247Z,98774.84
2022-12-12T11:08:31.449Z,98791.41
2022-12-12T11:11:21.755Z,98781.88
2022-12-12T11:13:53.483Z,98794.72
2022-12-12T11:16:40.593Z,98791.59
2022-12-12T11:19:25.003Z,98766.88
2022-12-12T11:21:56.220Z,98780.84
2022-12-12T11:24:29.955Z,98773.00
2022-12-12T11:27:01.477Z,98789.56
2022-12-12T11:29:36.514Z,98757.72
2022-12-12T11:32:04.828Z,98776.56
2022-12-12T11:34:36.645Z,98780.03
2022-12-12T11:37:04.181Z,98771.28
2022-12-12T11:39:41.579Z,98790.88
2022-12-12T11:42:14.401Z,98787.63
2022-12-12T11:44:43.727Z,98774.03
2022-12-12T11:47:23.104Z,98782.75
2022-12-12T11:49:56.583Z,98785.41
2022-12-12T11:52:28.617Z,98777.41
2022-12-12T11:54:56.565Z,98755.13
2022-12-12T11:57:44.974Z,98761.34
2022-12-12T12:00:58.173Z,98775.00
2022-12-12T12:04:03.839Z,98754.50
2022-12-12T12:06:52.231Z,98785.31
2022-12-12T12:09:51.029Z,98786.19
2022-12-12T12:12:24.826Z,98776.44
2022-12-12T12:15:21.360Z,98796.25
2022-12-12T12:17:58.053Z,98795.47
2022-12-12T12:20:33.614Z,98783.63
2022-12-12T12:23:42.591Z,98781.66
2022-12-12T12:26:43.581Z,98775.88
2022-12-12T12:29:35.966Z,98774.91
2022-12-12T12:32:21.319Z,98773.03
2022-12-12T12:35:19.645Z,98774.78
2022-12-12T12:38:15.015Z,98776.47
2022-12-12T12:40:44.862Z,98775.81
2022-12-12T12:43:41.016Z,98716.03
2022-12-12T12:46:34.909Z,98773.44
2022-12-12T12:49:17.819Z,98771.47
2022-12-12T12:51:52.036Z,98771.47
2022-12-12T12:55:02.397Z,98720.50
2022-12-12T12:57:35.272Z,98770.69
2022-12-12T13:00:16.313Z,98776.63
2022-12-12T13:02:50.520Z,98780.16
2022-12-12T13:05:29.290Z,98783.97
2022-12-12T13:08:17.779Z,98755.69
2022-12-12T13:10:48.459Z,98791.06
2022-12-12T13:13:30.863Z,98764.31
2022-12-12T13:16:07.827Z,98763.50
2022-12-12T13:18:45.192Z,98765.09
2022-12-12T13:21:39.050Z,98769.69
2022-12-12T13:24:10.116Z,98763.06
2022-12-12T13:26:55.922Z,98772.41
2022-12-12T13:29:29.679Z,98723.28
2022-12-12T13:32:27.675Z,98768.56
2022-12-12T13:35:00.390Z,98772.78
2022-12-12T13:37:32.447Z,98761.31
2022-12-12T13:40:02.324Z,98777.44
2022-12-12T13:43:09.665Z,98777.91
2022-12-12T13:45:41.119Z,98757.44
2022-12-12T13:48:44.490Z,98764.91
2022-12-12T13:51:28.857Z,98759.63
2022-12-12T13:54:12.799Z,98754.47
2022-12-12T13:56:55.462Z,98767.44
2022-12-12T13:59:22.441Z,98767.34
2022-12-12T14:02:19.057Z,98769.19
2022-12-12T14:04:46.761Z,98780.09
2022-12-12T14:07:18.300Z,98784.66
2022-12-12T14:09:49.506Z,98834.19
2022-12-12T14:12:23.715Z,98827.50
2022-12-12T14:14:57.615Z,98815.94
2022-12-12T14:17:29.588Z,98829.00
2022-12-12T14:19:59.602Z,98827.19
2022-12-12T14:22:38.569Z,98821.88
2022-12-12T14:25:39.359Z,98818.13
2022-12-12T14:28:31.539Z,98812.44
2022-12-12T14:31:08.365Z,98807.13
2022-12-12T14:33:50.334Z,98813.13
2022-12-12T14:36:23.190Z,98811.44
2022-12-12T14:39:14.596Z,98799.69
2022-12-12T14:41:44.467Z,98796.22
2022-12-12T14:44:37.817Z,98803.66
2022-12-12T14:47:09.508Z,98799.03
2022-12-12T14:49:36.712Z,98799.06
2022-12-12T14:52:04.052Z,98794.28
2022-12-12T14:54:31.291Z,98784.78
2022-12-12T14:56:59.916Z,98795.34
2022-12-12T14:59:44.940Z,98782.88
2022-12-12T15:02:19.212Z,98801.09
2022-12-12T15:04:49.712Z,98788.34
2022-12-12T15:07:28.508Z,98793.81
2022-12-12T15:09:56.204Z,98791.13
2022-12-12T15:12:32.955Z,98777.94
2022-12-12T15:15:00.769Z,98782.88
2022-12-12T15:17:31.108Z,98796.63
2022-12-12T15:20:28.769Z,98794.28
2022-12-12T15:23:02.290Z,98775.25
2022-12-12T15:25:32.818Z,98768.88
2022-12-12T15:28:01.506Z,98787.31
2022-12-12T15:30:39.551Z,98792.44
2022-12-12T15:33:17.398Z,98770.63
2022-12-12T15:35:56.353Z,98784.00
2022-12-12T15:38:27.684Z,98791.56
2022-12-12T15:40:58.826Z,98798.59
2022-12-12T15:43:30.925Z,98803.09
2022-12-12T15:46:14.577Z,98794.34
2022-12-12T15:48:49.628Z,98784.09
2022-12-12T15:51:24.728Z,98788.44
2022-12-12T15:53:53.939Z,98759.25
2022-12-12T15:56:20.868Z,98782.47
2022-12-12T15:59:13.442Z,98792.13
2022-12-12T16:01:41.370Z,98780.25
2022-12-12T16:04:11.559Z,98791.22
2022-12-12T16:06:48.878Z,98787.84
2022-12-12T16:09:24.902Z,98788.72
2022-12-12T16:11:51.874Z,98788.69
2022-12-12T16:14:40.039Z,98795.72
2022-12-12T16:17:13.622Z,98793.56
2022-12-12T16:20:07.420Z,98785.81
2022-12-12T16:22:47.707Z,98793.47
2022-12-12T16:25:19.257Z,98787.66
2022-12-12T16:27:51.114Z,98781.41
2022-12-12T16:30:18.387Z,98779.91
2022-12-12T16:32:45.527Z,98784.34
2022-12-12T16:35:20.883Z,98782.66
2022-12-12T16:37:48.588Z,98730.50
2022-12-12T16:40:17.691Z,98775.13
2022-12-12T16:42:49.992Z,98763.84
2022-12-12T16:45:17.086Z,98764.00
2022-12-12T16:47:44.024Z,98758.75
2022-12-12T16:50:13.600Z,98713.53
2022-12-12T16:52:40.769Z,98779.19
2022-12-12T16:55:21.065Z,98786.03
2022-12-12T16:57:48.052Z,98780.91
2022-12-12T17:00:15.680Z,98780.28
2022-12-12T17:02:43.052Z,98785.41
2022-12-12T17:05:18.278Z,98782.16
2022-12-12T17:07:45.454Z,98774.38
2022-12-12T17:10:13.136Z,98792.38
2022-12-12T17:12:40.689Z,98769.16
2022-12-12T17:15:08.187Z,98782.34
2022-12-12T17:17:35.144Z,98791.50
2022-12-12T17:20:02.131Z,98779.25
2022-12-12T17:22:31.126Z,98795.97
2022-12-12T17:24:58.085Z,98786.69
2022-12-12T17:27:25.797Z,98784.66
2022-12-12T17:29:52.821Z,98768.81
2022-12-12T17:32:24.211Z,98798.44
2022-12-12T17:34:51.608Z,98798.53
2022-12-12T17:37:18.606Z,98803.84
2022-12-12T17:39:45.818Z,98803.50
2022-12-12T17:42:12.998Z,98799.28
2022-12-12T17:44:39.995Z,98805.06
2022-12-12T17:47:07.348Z,98795.00
2022-12-12T17:49:35.841Z,98808.09
2022-12-12T17:52:04.222Z,98786.44
2022-12-12T17:54:31.336Z,98799.88
2022-12-12T17:56:58.449Z,98804.38
2022-12-12T17:59:25.519Z,98789.72
2022-12-12T18:01:55.611Z,98803.53
2022-12-12T18:04:28.070Z,98797.75
2022-12-12T18:06:55.780Z,98783.06
2022-12-12T18:09:22.730Z,98783.22
2022-12-12T18:11:49.709Z,98792.34
2022-12-12T18:14:18.680Z,98798.53
2022-12-12T18:16:51.448Z,98802.75
2022-12-12T18:19:22.185Z,98808.69
2022-12-12T18:22:05.342Z,98792.44
2022-12-12T18:24:36.365Z,98784.69
2022-12-12T18:27:05.474Z,98804.38
2022-12-12T18:29:32.631Z,98811.03
2022-12-12T18:31:59.877Z,98819.75
2022-12-12T18:34:26.929Z,98809.41
2022-12-12T18:36:54.198Z,98801.84
2022-12-12T18:39:21.190Z,98826.78
2022-12-12T18:41:48.223Z,98824.25
2022-12-12T18:44:15.853Z,98818.72
2022-12-12T18:46:43.910Z,98833.44
2022-12-12T18:49:15.184Z,98831.75
2022-12-12T18:51:43.732Z,98839.59
2022-12-12T18:54:15.368Z,98841.06
2022-12-12T18:56:45.395Z,98842.19
2022-12-12T18:59:12.962Z,98836.78
2022-12-12T19:01:40.045Z,98831.13
2022-12-12T19:04:12.577Z,98847.53
2022-12-12T19:06:42.272Z,98845.03
2022-12-12T19:09:16.792Z,98846.09
2022-12-12T19:11:44.552Z,98856.00
2022-12-12T19:14:13.765Z,98858.72
2022-12-12T19:16:41.675Z,98839.88
2022-12-12T19:19:12.454Z,98806.94
2022-12-12T19:21:41.180Z,98800.00
2022-12-12T19:24:09.445Z,98844.47
2022-12-12T19:26:38.259Z,98861.59
2022-12-12T19:29:08.064Z,98863.47
2022-12-12T19:31:36.147Z,98872.72
2022-12-12T19:34:08.023Z,98871.66
2022-12-12T19:36:35.969Z,98869.03
2022-12-12T19:39:05.496Z,98877.53
2022-12-12T19:41:32.970Z,98861.31
2022-12-12T19:44:04.879Z,98873.53
2022-12-12T19:46:33.131Z,98866.53
2022-12-12T19:49:02.840Z,98865.13
2022-12-12T19:51:32.899Z,98885.94
2022-12-12T19:54:00.623Z,98882.41
2022-12-12T19:56:30.820Z,98881.03
2022-12-12T19:58:58.847Z,98883.59
2022-12-12T20:01:31.339Z,98873.25
2022-12-12T20:04:02.684Z,98882.63
2022-12-12T20:06:29.828Z,98889.81
2022-12-12T20:08:58.536Z,98838.50
2022-12-12T20:11:25.846Z,98887.13
2022-12-12T20:13:57.277Z,98882.28
2022-12-12T20:16:27.887Z,98884.13
2022-12-12T20:18:57.511Z,98885.94
2022-12-12T20:21:59.898Z,98883.69
2022-12-12T20:24:17.596Z,98891.22
2022-12-12T20:26:46.021Z,98895.56
2022-12-12T20:29:14.413Z,98885.06
2022-12-12T20:31:44.468Z,98894.38
2022-12-12T20:34:15.906Z,98903.88
2022-12-12T20:36:56.867Z,98900.84
2022-12-12T20:39:26.056Z,98907.03
2022-12-12T20:41:53.974Z,98913.84
2022-12-12T20:44:22.611Z,98921.28
2022-12-12T20:46:51.215Z,98923.03
2022-12-12T20:49:19.902Z,98913.41
2022-12-12T20:51:56.315Z,98907.09
2022-12-12T20:54:27.662Z,98911.78
2022-12-12T20:56:57.953Z,98920.53
2022-12-12T20:59:26.673Z,98926.59
2022-12-12T21:01:54.193Z,98923.41
2022-12-12T21:04:22.081Z,98918.06
2022-12-12T21:06:57.609Z,98912.09
2022-12-12T21:09:37.660Z,98927.81
2022-12-12T21:12:04.791Z,98937.09
2022-12-12T21:14:35.093Z,98942.56
2022-12-12T21:17:02.097Z,98930.53
2022-12-12T21:19:29.440Z,98934.72
2022-12-12T21:21:56.659Z,98921.13
2022-12-12T21:24:23.664Z,98940.19
2022-12-12T21:26:50.843Z,98929.00
2022-12-12T21:29:18.016Z,98934.34
2022-12-12T21:31:50.942Z,98937.59
2022-12-12T21:34:20.755Z,98927.81
2022-12-12T21:36:50.741Z,98939.06
2022-12-12T21:39:17.722Z,98932.19
2022-12-12T21:41:44.854Z,98942.56
2022-12-12T21:44:11.885Z,98937.13
2022-12-12T21:46:42.035Z,98935.66
2022-12-12T21:49:28.033Z,98917.66
2022-12-12T21:51:57.923Z,98932.28
2022-12-12T21:54:25.816Z,98934.22
2022-12-12T21:56:53.042Z,98943.78
2022-12-12T21:59:19.986Z,98932.38
2022-12-12T22:01:47.003Z,98943.44
2022-12-12T22:04:14.107Z,98940.13
2022-12-12T22:06:41.091Z,98944.91
2022-12-12T22:09:10.567Z,98940.88
2022-12-12T22:11:47.538Z,98922.66
2022-12-12T22:14:18.846Z,98947.97
2022-12-12T22:16:46.295Z,98947.13
2022-12-12T22:19:14.807Z,98946.31
2022-12-12T22:21:43.907Z,98957.38
2022-12-12T22:24:10.951Z,98954.00
2022-12-12T22:26:41.146Z,98938.16
2022-12-12T22:29:11.822Z,98965.63
2022-12-12T22:31:39.810Z,98959.91
2022-12-12T22:34:13.377Z,98953.84
2022-12-12T22:36:40.840Z,98956.56
2022-12-12T22:39:13.789Z,98953.19
2022-12-12T22:41:40.806Z,98963.66
2022-12-12T22:44:07.751Z,98978.97
2022-12-12T22:46:39.250Z,98952.22
2022-12-12T22:49:11.437Z,98965.94
2022-12-12T22:51:38.520Z,98946.28
2022-12-12T22:54:05.945Z,98923.91
2022-12-12T22:56:35.154Z,98955.81
2022-12-12T22:59:02.178Z,98983.44
2022-12-12T23:01:29.550Z,98966.44
2022-12-12T23:03:57.150Z,98983.09
2022-12-12T23:06:30.627Z,98986.66
2022-12-12T23:09:02.840Z,98990.22
2022-12-12T23:11:31.024Z,98986.19
2022-12-12T23:14:04.061Z,98990.84
2022-12-12T23:16:31.301Z,98982.78
2022-12-12T23:18:59.082Z,98994.34
2022-12-12T23:21:27.167Z,98998.72
2022-12-12T23:23:55.607Z,98993.72
2022-12-12T23:26:29.958Z,98995.59
2022-12-12T23:28:58.457Z,98985.09
2022-12-12T23:31:33.892Z,98992.84
2022-12-12T23:34:05.106Z,98998.53
2022-12-12T23:36:32.572Z,98989.59
2022-12-12T23:39:02.131Z,98996.78
2022-12-12T23:41:29.951Z,98998.44
2022-12-12T23:43:57.025Z,98999.34
2022-12-12T23:46:33.602Z,99002.03
2022-12-12T23:49:06.626Z,99004.22
2022-12-12T23:51:55.749Z,99003.34
2022-12-12T23:54:32.250Z,98960.78
2022-12-12T23:57:00.047Z,99005.31
2022-12-12T23:59:27.843Z,99013.97
